Time;durP1;ratioP1;P1;durP2;ratioP2;P2;SDS_P1;SDS_P2;PMS_P1;PMS_P2;Temp;Humidity;BMP_temperature;BMP_pressure;BME280_temperature;BME280_humidity;BME280_pressure;Samples;Min_cycle;Max_cycle;Signal;HPM_P1;HPM_P2
2022/07/12 00:01:12;;;;;;;2.45;2.25;;;17.20;1.40;;;;;;7361601;19;20082;-76
2022/07/12 00:03:42;;;;;;;4.28;2.10;;;17.20;1.40;;;;;;7358259;19;20014;-77
2022/07/12 00:06:12;;;;;;;4.65;1.95;;;17.20;1.50;;;;;;7353723;19;20031;-76
2022/07/12 00:08:42;;;;;;;3.00;2.13;;;17.20;2.00;;;;;;7368974;19;20489;-77
2022/07/12 00:11:12;;;;;;;3.10;2.35;;;17.20;2.00;;;;;;7383180;19;20484;-76
2022/07/12 00:13:42;;;;;;;3.25;2.13;;;17.20;2.30;;;;;;7366621;19;20056;-76
2022/07/12 00:16:15;;;;;;;3.60;2.10;;;17.20;2.20;;;;;;7360726;19;20771;-77
2022/07/12 00:18:45;;;;;;;2.08;1.73;;;17.20;2.00;;;;;;7367769;19;20011;-77
2022/07/12 00:21:15;;;;;;;3.92;2.05;;;17.30;1.70;;;;;;7368128;19;20037;-76
2022/07/12 00:23:44;;;;;;;2.45;2.00;;;17.30;2.40;;;;;;7366317;19;20478;-76
2022/07/12 00:26:14;;;;;;;2.08;1.88;;;17.30;1.70;;;;;;7381315;19;20010;-77
2022/07/12 00:28:44;;;;;;;2.03;1.75;;;17.40;1.20;;;;;;7367114;19;20017;-76
2022/07/12 00:31:17;;;;;;;2.65;1.80;;;17.50;1.00;;;;;;7365947;19;20102;-77
2022/07/12 00:33:47;;;;;;;1.83;1.73;;;17.50;1.00;;;;;;7366594;19;20007;-78
2022/07/12 00:36:19;;;;;;;3.05;2.20;;;17.50;1.00;;;;;;7360588;19;20053;-78
2022/07/12 00:38:52;;;;;;;2.63;1.92;;;17.40;1.00;;;;;;7365697;19;20014;-77
2022/07/12 00:41:26;;;;;;;2.33;2.13;;;17.30;2.00;;;;;;7388776;19;20014;-79
2022/07/12 00:43:56;;;;;;;2.03;1.80;;;17.40;2.20;;;;;;7365697;19;20014;-78
2022/07/12 00:46:32;;;;;;;2.10;1.90;;;17.30;1.80;;;;;;7358794;19;20014;-78
2022/07/12 00:49:02;;;;;;;4.03;1.67;;;17.30;1.70;;;;;;7367164;19;20018;-77
2022/07/12 00:51:32;;;;;;;2.28;1.95;;;17.30;1.70;;;;;;7366247;19;20006;-77
2022/07/12 00:54:02;;;;;;;2.92;2.13;;;17.20;2.00;;;;;;7366439;19;20098;-77
2022/07/12 00:56:32;;;;;;;2.20;2.00;;;17.20;2.50;;;;;;7380733;19;20132;-77
2022/07/12 00:59:02;;;;;;;2.15;1.90;;;17.10;2.60;;;;;;7365003;19;20089;-78
2022/07/12 01:01:35;;;;;;;1.75;1.40;;;17.20;3.80;;;;;;7366728;19;20482;-77
2022/07/12 01:04:05;;;;;;;3.78;2.08;;;17.10;3.40;;;;;;7365002;19;20014;-77
2022/07/12 01:06:35;;;;;;;1.75;1.65;;;17.10;3.70;;;;;;7359590;19;20478;-78
2022/07/12 01:09:07;;;;;;;3.50;1.88;;;17.20;3.90;;;;;;7366538;19;20809;-78
2022/07/12 01:11:38;;;;;;;2.80;1.90;;;17.30;3.50;;;;;;7388245;19;20011;-77
2022/07/12 01:14:08;;;;;;;2.17;1.70;;;17.30;2.40;;;;;;7364349;19;20038;-78
2022/07/12 01:16:41;;;;;;;2.03;1.83;;;17.20;2.80;;;;;;7356959;19;20035;-77
2022/07/12 01:19:17;;;;;;;3.60;1.90;;;17.20;3.00;;;;;;7365324;19;20010;-77
2022/07/12 01:21:49;;;;;;;2.80;2.00;;;17.20;4.10;;;;;;7364489;19;20010;-78
2022/07/12 01:24:22;;;;;;;3.35;2.03;;;17.20;4.00;;;;;;7365489;19;20007;-77
2022/07/12 01:26:52;;;;;;;3.17;1.92;;;17.10;3.90;;;;;;7356623;19;20569;-77
2022/07/12 01:29:23;;;;;;;3.45;1.70;;;17.10;4.30;;;;;;7387554;19;20014;-77
2022/07/12 01:31:53;;;;;;;2.13;1.92;;;17.00;4.90;;;;;;7364328;19;20394;-77
2022/07/12 01:34:24;;;;;;;2.42;1.98;;;16.90;5.00;;;;;;7363928;19;20470;-77
2022/07/12 01:36:53;;;;;;;4.63;2.28;;;16.90;5.90;;;;;;7359197;19;20018;-77
2022/07/12 01:39:26;;;;;;;2.33;2.05;;;16.80;5.80;;;;;;7364907;19;20007;-78
2022/07/12 01:41:56;;;;;;;2.60;2.03;;;16.70;6.10;;;;;;7365365;19;20558;-76
2022/07/12 01:44:26;;;;;;;2.50;1.80;;;16.70;6.80;;;;;;7386051;19;20031;-78
2022/07/12 01:46:56;;;;;;;2.53;2.15;;;16.70;7.10;;;;;;7356013;19;20093;-78
2022/07/12 01:49:27;;;;;;;2.95;2.17;;;16.70;7.50;;;;;;7364775;19;20014;-77
2022/07/12 01:51:57;;;;;;;2.58;1.88;;;16.60;7.10;;;;;;7365215;19;20419;-77
2022/07/12 01:54:30;;;;;;;3.92;2.17;;;16.50;7.80;;;;;;7364384;19;20564;-77
2022/07/12 01:57:00;;;;;;;3.72;2.22;;;16.50;7.70;;;;;;7356688;19;20018;-78
2022/07/12 01:59:31;;;;;;;2.25;1.83;;;16.40;7.80;;;;;;7384389;19;20411;-77
2022/07/12 02:02:01;;;;;;;2.33;1.98;;;16.40;8.50;;;;;;7363395;19;20031;-77
2022/07/12 02:04:31;;;;;;;4.20;2.17;;;16.30;8.90;;;;;;7364394;19;20595;-77
2022/07/12 02:07:01;;;;;;;3.45;2.00;;;16.30;9.80;;;;;;7357444;19;20011;-78
2022/07/12 02:09:34;;;;;;;3.05;2.05;;;16.30;9.60;;;;;;7364789;19;20077;-77
2022/07/12 02:12:04;;;;;;;2.85;1.90;;;16.30;9.70;;;;;;7365028;19;20097;-78
2022/07/12 02:14:34;;;;;;;2.38;2.00;;;16.10;10.50;;;;;;7386128;19;20070;-78
2022/07/12 02:17:04;;;;;;;2.42;2.05;;;16.00;11.20;;;;;;7356205;19;20030;-76
2022/07/12 02:19:34;;;;;;;2.47;2.17;;;16.00;11.50;;;;;;7362166;19;20006;-77
2022/07/12 02:22:04;;;;;;;2.75;2.08;;;16.10;11.50;;;;;;7364564;19;20097;-76
2022/07/12 02:24:36;;;;;;;5.65;2.30;;;16.10;11.50;;;;;;7374319;19;20018;-77
2022/07/12 02:27:07;;;;;;;2.45;2.05;;;16.10;11.20;;;;;;7363457;19;20082;-77
2022/07/12 02:29:37;;;;;;;2.67;2.00;;;16.10;10.90;;;;;;7385827;19;20011;-78
2022/07/12 02:32:08;;;;;;;2.35;2.08;;;16.20;11.10;;;;;;7364180;19;20402;-78
2022/07/12 02:34:38;;;;;;;3.97;2.17;;;16.10;11.30;;;;;;7361437;19;20081;-78
2022/07/12 02:37:08;;;;;;;2.15;1.80;;;15.90;11.90;;;;;;7356306;19;20093;-78
2022/07/12 02:39:40;;;;;;;1.98;1.77;;;15.90;11.80;;;;;;7362952;19;20015;-77
2022/07/12 02:42:10;;;;;;;2.53;1.95;;;16.00;11.90;;;;;;7364112;19;20013;-78
2022/07/12 02:44:40;;;;;;;2.67;1.95;;;16.00;11.90;;;;;;7384098;19;20537;-78
2022/07/12 02:47:10;;;;;;;2.08;1.63;;;16.00;11.60;;;;;;7355736;19;20481;-77
2022/07/12 02:49:40;;;;;;;1.65;1.50;;;15.90;13.00;;;;;;7363458;19;20011;-78
2022/07/12 02:52:10;;;;;;;2.47;2.20;;;15.80;12.80;;;;;;7362795;19;20014;-78
2022/07/12 02:54:42;;;;;;;2.13;1.92;;;15.80;12.90;;;;;;7362852;19;20117;-77
2022/07/12 02:57:12;;;;;;;4.22;2.00;;;15.80;13.70;;;;;;7355046;19;20488;-77
2022/07/12 02:59:42;;;;;;;2.47;2.28;;;15.80;13.00;;;;;;7368868;19;20105;-77
2022/07/12 03:02:12;;;;;;;2.50;2.05;;;15.70;14.10;;;;;;7384919;19;20019;-77
2022/07/12 03:04:42;;;;;;;3.20;1.98;;;15.70;14.10;;;;;;7361960;19;20011;-77
2022/07/12 03:07:12;;;;;;;2.92;2.10;;;15.60;13.80;;;;;;7356017;19;20018;-77
2022/07/12 03:09:44;;;;;;;3.97;2.10;;;15.60;14.00;;;;;;7362191;19;20412;-77
2022/07/12 03:12:15;;;;;;;3.47;2.10;;;15.60;14.60;;;;;;7362230;19;20370;-77
2022/07/12 03:14:44;;;;;;;3.35;2.38;;;15.60;16.00;;;;;;7361659;19;20021;-77
2022/07/12 03:17:14;;;;;;;3.17;2.42;;;15.60;15.80;;;;;;7376189;19;20020;-77
2022/07/12 03:19:44;;;;;;;5.28;2.65;;;15.50;15.70;;;;;;7361474;19;20029;-77
2022/07/12 03:22:14;;;;;;;5.40;2.95;;;15.60;15.80;;;;;;7361553;19;20065;-78
2022/07/12 03:24:46;;;;;;;3.50;2.20;;;15.70;15.70;;;;;;7361140;19;20007;-78
2022/07/12 03:27:16;;;;;;;3.38;2.70;;;15.50;15.80;;;;;;7354028;19;20006;-77
2022/07/12 03:29:46;;;;;;;3.40;2.40;;;15.50;16.80;;;;;;7360932;19;20016;-78
2022/07/12 03:32:16;;;;;;;4.30;2.65;;;15.50;16.50;;;;;;7383195;19;20014;-78
2022/07/12 03:34:46;;;;;;;3.42;2.55;;;15.40;18.70;;;;;;7359657;19;20082;-78
2022/07/12 03:37:16;;;;;;;4.30;3.10;;;15.40;18.10;;;;;;7354558;19;20122;-78
2022/07/12 03:39:48;;;;;;;3.42;2.55;;;15.40;18.10;;;;;;7360949;19;20077;-77
2022/07/12 03:42:18;;;;;;;4.72;3.33;;;15.50;18.00;;;;;;7361313;19;20010;-77
2022/07/12 03:44:48;;;;;;;3.85;3.05;;;15.50;18.40;;;;;;7360103;19;20011;-77
2022/07/12 03:47:18;;;;;;;5.00;2.90;;;15.60;17.50;;;;;;7379679;19;20350;-77
2022/07/12 03:49:48;;;;;;;4.50;3.22;;;15.80;16.50;;;;;;7367940;19;20078;-78
2022/07/12 03:52:18;;;;;;;5.07;2.80;;;16.50;12.60;;;;;;7366612;19;20014;-77
2022/07/12 03:54:50;;;;;;;4.88;2.63;;;16.40;11.60;;;;;;7367446;19;20066;-78
2022/07/12 03:57:20;;;;;;;4.78;2.83;;;16.10;12.30;;;;;;7360407;19;20011;-77
2022/07/12 03:59:50;;;;;;;3.10;2.70;;;15.90;14.50;;;;;;7366907;19;20013;-77
2022/07/12 04:02:20;;;;;;;4.28;2.65;;;16.00;16.90;;;;;;7390369;19;20057;-78
2022/07/12 04:04:50;;;;;;;4.28;3.38;;;16.00;15.80;;;;;;7366928;19;20093;-77
2022/07/12 04:07:21;;;;;;;4.60;3.10;;;16.00;14.20;;;;;;7361525;19;20078;-77
2022/07/12 04:09:53;;;;;;;5.75;3.38;;;15.90;15.10;;;;;;7368101;19;20542;-78
2022/07/12 04:12:23;;;;;;;3.75;3.22;;;15.90;15.80;;;;;;7368587;19;20014;-77
2022/07/12 04:14:53;;;;;;;3.28;2.97;;;16.10;15.40;;;;;;7366320;19;20011;-78
2022/07/12 04:17:23;;;;;;;4.45;3.00;;;16.50;11.40;;;;;;7380679;19;20018;-77
2022/07/12 04:19:53;;;;;;;4.35;3.20;;;17.90;3.60;;;;;;7366883;19;20481;-78
2022/07/12 04:22:23;;;;;;;3.95;2.75;;;18.90;1.00;;;;;;7366734;19;20078;-77
2022/07/12 04:24:56;;;;;;;4.22;2.97;;;18.30;1.00;;;;;;7366512;19;20017;-78
2022/07/12 04:27:27;;;;;;;2.72;2.53;;;18.40;1.00;;;;;;7360780;19;20011;-78
2022/07/12 04:29:56;;;;;;;5.18;3.33;;;20.00;1.00;;;;;;7367301;19;20126;-77
2022/07/12 04:32:32;;;;;;;4.05;2.63;;;20.60;1.00;;;;;;7388385;19;20014;-78
2022/07/12 04:35:02;;;;;;;6.78;2.63;;;21.00;1.00;;;;;;7366100;19;20133;-78
2022/07/12 04:37:32;;;;;;;3.30;2.47;;;20.80;1.00;;;;;;7360401;19;20074;-78
2022/07/12 04:40:04;;;;;;;5.45;2.95;;;21.10;1.00;;;;;;7366735;19;20018;-77
2022/07/12 04:42:34;;;;;;;2.50;2.30;;;20.90;1.00;;;;;;7366855;19;20006;-76
2022/07/12 04:45:04;;;;;;;4.57;2.50;;;22.00;1.00;;;;;;7365599;19;20078;-77
2022/07/12 04:47:34;;;;;;;2.63;2.28;;;22.20;1.00;;;;;;7379816;19;20014;-77
2022/07/12 04:50:06;;;;;;;3.10;2.40;;;22.70;1.00;;;;;;7365738;19;20010;-77
2022/07/12 04:52:36;;;;;;;3.25;2.40;;;23.00;1.00;;;;;;7358316;19;20014;-77
2022/07/12 04:55:10;;;;;;;3.88;2.35;;;22.80;1.00;;;;;;7365269;19;20082;-77
2022/07/12 04:57:40;;;;;;;4.18;2.75;;;21.70;1.00;;;;;;7356670;19;20066;-77
2022/07/12 05:00:11;;;;;;;4.22;2.63;;;21.80;1.00;;;;;;7366914;19;20127;-76
2022/07/12 05:02:41;;;;;;;3.83;2.50;;;21.00;1.00;;;;;;7388568;19;20014;-76
2022/07/12 05:05:11;;;;;;;3.22;2.50;;;22.70;1.00;;;;;;7365490;19;20083;-76
2022/07/12 05:07:41;;;;;;;3.78;2.72;;;23.30;1.00;;;;;;7357056;19;20010;-76
2022/07/12 05:10:18;;;;;;;4.18;2.20;;;23.20;1.00;;;;;;7366486;19;20007;-78
2022/07/12 05:12:48;;;;;;;6.20;2.65;;;23.70;1.00;;;;;;7365865;19;20078;-77
2022/07/12 05:15:19;;;;;;;3.55;2.45;;;22.80;1.00;;;;;;7365540;19;20033;-77
2022/07/12 05:17:48;;;;;;;2.55;1.70;;;22.50;1.00;;;;;;7357412;19;20021;-77
2022/07/12 05:20:19;;;;;;;3.67;1.77;;;22.50;1.00;;;;;;7386457;19;20017;-76
2022/07/12 05:22:48;;;;;;;2.60;2.00;;;23.30;1.00;;;;;;7364909;19;20522;-77
2022/07/12 05:25:22;;;;;;;3.60;2.13;;;22.80;1.00;;;;;;7364753;19;20003;-78
2022/07/12 05:27:51;;;;;;;3.38;2.20;;;24.00;1.00;;;;;;7355787;19;20042;-77
2022/07/12 05:30:21;;;;;;;2.03;1.70;;;23.80;1.00;;;;;;7365423;19;20009;-78
2022/07/12 05:32:51;;;;;;;2.90;2.08;;;21.70;1.00;;;;;;7364730;19;20014;-78
2022/07/12 05:35:21;;;;;;;2.42;2.20;;;20.50;1.00;;;;;;7385527;19;20022;-77
2022/07/12 05:37:51;;;;;;;3.80;2.10;;;22.50;1.00;;;;;;7356415;19;20090;-78
2022/07/12 05:40:24;;;;;;;4.18;2.08;;;21.90;1.00;;;;;;7364328;19;20010;-78
2022/07/12 05:42:54;;;;;;;3.83;2.20;;;21.20;1.00;;;;;;7365352;19;20018;-78
2022/07/12 05:45:25;;;;;;;3.97;2.20;;;20.30;1.00;;;;;;7362902;19;20007;-76
2022/07/12 05:47:55;;;;;;;3.10;1.95;;;20.40;1.00;;;;;;7356359;19;20032;-77
2022/07/12 05:50:25;;;;;;;2.58;2.03;;;20.10;1.00;;;;;;7386364;19;20078;-76
2022/07/12 05:55:40;;;;;;;2.22;1.75;;;20.00;1.00;;;;;;7361799;19;20027;-78
2022/07/12 05:58:10;;;;;;;3.05;2.35;;;20.50;1.00;;;;;;7357019;19;20485;-77
2022/07/12 06:00:40;;;;;;;3.67;2.40;;;19.70;1.00;;;;;;7364193;19;20082;-77
2022/07/12 06:03:10;;;;;;;3.10;2.50;;;20.10;1.00;;;;;;7363996;19;20888;-77
2022/07/12 06:05:40;;;;;;;2.38;2.05;;;22.10;1.00;;;;;;7384353;19;20456;-77
2022/07/12 06:08:10;;;;;;;2.67;1.92;;;22.60;1.00;;;;;;7356035;19;20377;-77
2022/07/12 06:10:42;;;;;;;3.47;1.90;;;23.10;1.00;;;;;;7362226;19;20048;-77
2022/07/12 06:13:12;;;;;;;2.85;1.80;;;23.20;1.00;;;;;;7363168;19;20022;-78
2022/07/12 06:15:42;;;;;;;1.98;1.40;;;23.20;1.00;;;;;;7361485;19;20612;-77
2022/07/12 06:18:12;;;;;;;2.63;1.08;;;22.20;1.00;;;;;;7357865;19;20017;-77
2022/07/12 06:20:42;;;;;;;1.55;1.27;;;21.70;1.00;;;;;;7372557;19;20090;-77
2022/07/12 06:23:12;;;;;;;3.53;1.17;;;21.00;1.00;;;;;;7384286;19;20027;-77
2022/07/12 06:25:45;;;;;;;1.50;1.00;;;20.60;1.00;;;;;;7361776;19;20021;-77
2022/07/12 06:28:24;;;;;;;2.45;1.40;;;20.80;1.00;;;;;;7357522;19;20374;-77
2022/07/12 06:30:53;;;;;;;2.65;1.40;;;20.50;1.00;;;;;;7363116;19;20010;-76
2022/07/12 06:33:23;;;;;;;2.70;1.27;;;20.90;1.00;;;;;;7362111;19;20807;-77
2022/07/12 06:35:53;;;;;;;1.45;1.00;;;21.60;1.00;;;;;;7359468;19;20021;-75
2022/07/12 06:38:23;;;;;;;1.95;1.10;;;22.10;1.00;;;;;;7379358;19;20018;-76
2022/07/12 06:40:56;;;;;;;1.48;1.13;;;22.50;1.00;;;;;;7362024;19;20007;-77
2022/07/12 06:43:25;;;;;;;5.50;1.38;;;23.30;1.00;;;;;;7361303;19;20007;-78
2022/07/12 06:45:55;;;;;;;1.63;1.13;;;23.20;1.00;;;;;;7358673;19;20006;-77
2022/07/12 06:48:25;;;;;;;1.80;1.10;;;23.10;1.00;;;;;;7357050;19;20010;-76
2022/07/12 06:50:55;;;;;;;3.08;1.30;;;22.40;1.00;;;;;;7362586;19;20077;-76
2022/07/12 06:53:26;;;;;;;2.30;1.33;;;22.10;1.00;;;;;;7383652;19;20014;-77
2022/07/12 06:55:58;;;;;;;2.00;1.20;;;21.60;1.00;;;;;;7357467;19;20018;-77
2022/07/12 06:58:28;;;;;;;2.55;1.00;;;21.10;1.00;;;;;;7357046;19;20010;-77
2022/07/12 07:00:58;;;;;;;3.03;1.20;;;21.20;1.00;;;;;;7362749;19;20920;-76
2022/07/12 07:03:28;;;;;;;1.05;0.80;;;21.60;1.00;;;;;;7361022;19;20477;-76
2022/07/12 07:05:58;;;;;;;2.00;1.20;;;21.40;1.00;;;;;;7359245;19;20028;-76
2022/07/12 07:08:28;;;;;;;1.60;1.17;;;21.40;1.00;;;;;;7378375;19;20034;-77
2022/07/12 07:11:00;;;;;;;1.83;1.27;;;21.80;1.00;;;;;;7361610;19;20018;-76
2022/07/12 07:13:30;;;;;;;2.67;1.00;;;22.00;1.00;;;;;;7361068;19;20013;-77
2022/07/12 07:16:00;;;;;;;1.45;0.85;;;21.30;1.00;;;;;;7359370;19;20540;-76
2022/07/12 07:18:30;;;;;;;1.33;0.88;;;21.10;1.00;;;;;;7357914;19;20014;-76
2022/07/12 07:20:59;;;;;;;3.10;0.90;;;21.40;1.00;;;;;;7361305;19;20011;-76
2022/07/12 07:23:29;;;;;;;0.60;0.60;;;21.30;1.00;;;;;;7381662;19;20478;-76
2022/07/12 07:26:02;;;;;;;1.13;0.70;;;20.70;1.00;;;;;;7357219;19;20018;-76
2022/07/12 07:28:32;;;;;;;0.60;0.55;;;20.90;1.00;;;;;;7356963;19;20010;-76
2022/07/12 07:31:14;;;;;;;4.63;0.77;;;20.80;1.00;;;;;;7362640;19;20107;-76
2022/07/12 07:33:44;;;;;;;1.52;0.68;;;21.20;1.00;;;;;;7360850;19;20110;-77
2022/07/12 07:36:14;;;;;;;2.78;0.77;;;21.30;1.00;;;;;;7358773;19;20020;-77
2022/07/12 07:38:44;;;;;;;1.45;0.90;;;21.90;1.00;;;;;;7356424;19;20031;-77
2022/07/12 07:41:16;;;;;;;3.03;1.15;;;22.00;1.00;;;;;;7383033;19;20017;-77
2022/07/12 07:43:47;;;;;;;1.58;0.80;;;22.20;1.00;;;;;;7359917;19;20464;-77
2022/07/12 07:46:17;;;;;;;1.35;0.70;;;22.10;1.00;;;;;;7357762;19;20017;-76
2022/07/12 07:48:47;;;;;;;1.58;0.65;;;22.20;1.00;;;;;;7356246;19;20010;-77
2022/07/12 07:51:17;;;;;;;3.97;0.50;;;21.80;1.00;;;;;;7362243;19;20061;-75
2022/07/12 07:53:46;;;;;;;3.97;0.77;;;21.80;1.00;;;;;;7357661;19;20089;-75
2022/07/12 07:56:19;;;;;;;1.38;0.60;;;21.60;1.00;;;;;;7378382;19;20694;-74
2022/07/12 07:58:51;;;;;;;1.00;0.47;;;21.60;1.00;;;;;;7356634;19;20052;-76
2022/07/12 08:01:42;;;;;;;0.50;0.35;;;22.00;1.00;;;;;;7359477;19;20086;-76
2022/07/12 08:04:12;;;;;;;1.20;0.70;;;21.90;1.00;;;;;;7359061;19;20192;-76
2022/07/12 08:06:42;;;;;;;1.13;0.50;;;22.20;1.00;;;;;;7355766;19;20172;-76
2022/07/12 08:09:13;;;;;;;1.15;0.60;;;22.20;1.00;;;;;;7357081;19;20082;-76
2022/07/12 08:11:45;;;;;;;1.10;0.50;;;22.20;1.00;;;;;;7367985;19;20013;-76
2022/07/12 08:14:15;;;;;;;0.50;0.40;;;22.40;1.00;;;;;;7381293;19;20014;-76
2022/07/12 08:16:45;;;;;;;2.00;0.57;;;22.50;1.00;;;;;;7354877;19;20014;-75
2022/07/12 08:19:15;;;;;;;0.40;0.40;;;22.20;1.00;;;;;;7356873;19;20027;-75
2022/07/12 08:21:45;;;;;;;2.08;0.60;;;22.40;1.00;;;;;;7358303;19;20006;-75
2022/07/12 08:24:15;;;;;;;0.95;0.32;;;22.70;1.00;;;;;;7358849;19;20006;-75
2022/07/12 08:26:48;;;;;;;4.43;0.57;;;22.40;1.00;;;;;;7352926;19;20011;-75
2022/07/12 08:29:18;;;;;;;0.60;0.43;;;22.40;1.00;;;;;;7379473;19;20020;-75
2022/07/12 08:31:48;;;;;;;1.02;0.52;;;22.40;1.00;;;;;;7359024;19;20789;-75
2022/07/12 08:34:17;;;;;;;1.20;0.43;;;22.60;1.00;;;;;;7363747;19;20007;-75
2022/07/12 08:36:47;;;;;;;1.65;0.40;;;22.80;1.00;;;;;;7359797;19;20061;-75
2022/07/12 08:39:17;;;;;;;0.63;0.40;;;22.70;1.00;;;;;;7364427;19;20498;-74
2022/07/12 08:41:50;;;;;;;2.55;0.70;;;22.50;1.00;;;;;;7365709;19;20490;-74
2022/07/12 08:44:20;;;;;;;0.55;0.30;;;22.70;1.00;;;;;;7387305;19;20024;-73
2022/07/12 08:46:50;;;;;;;1.08;0.65;;;22.90;1.00;;;;;;7358288;19;20493;-76
2022/07/12 08:49:19;;;;;;;2.97;0.90;;;23.20;1.00;;;;;;7363712;19;20511;-75
2022/07/12 08:51:50;;;;;;;0.73;0.50;;;22.90;1.00;;;;;;7366381;19;20483;-73
2022/07/12 08:54:20;;;;;;;0.80;0.40;;;23.30;1.00;;;;;;7366203;19;20010;-74
2022/07/12 08:56:53;;;;;;;2.72;0.50;;;23.20;1.00;;;;;;7359995;19;20593;-75
2022/07/12 08:59:23;;;;;;;1.95;0.70;;;23.50;1.00;;;;;;7388108;19;20022;-74
2022/07/12 09:01:55;;;;;;;0.98;0.60;;;23.60;1.00;;;;;;7365754;19;20014;-74
2022/07/12 09:04:27;;;;;;;1.05;0.45;;;23.90;1.00;;;;;;7364083;19;20015;-74
2022/07/12 09:06:59;;;;;;;0.30;0.22;;;23.60;1.00;;;;;;7358175;19;20020;-74
2022/07/12 09:09:31;;;;;;;1.00;0.40;;;23.80;1.00;;;;;;7366035;19;20006;-74
2022/07/12 09:12:04;;;;;;;1.90;0.35;;;23.90;1.00;;;;;;7363985;19;20070;-74
2022/07/12 09:14:34;;;;;;;1.27;0.40;;;23.50;1.00;;;;;;7386224;19;20010;-72
2022/07/12 09:17:09;;;;;;;4.53;0.40;;;23.80;1.00;;;;;;7354658;19;20102;-73
2022/07/12 09:19:40;;;;;;;0.88;0.43;;;23.90;1.00;;;;;;7364570;19;20044;-72
2022/07/12 09:22:17;;;;;;;1.70;0.50;;;23.40;1.00;;;;;;7365116;19;20021;-74
2022/07/12 09:24:47;;;;;;;0.65;0.40;;;23.20;1.00;;;;;;7362096;19;20015;-73
2022/07/12 09:27:26;;;;;;;1.33;0.30;;;22.80;1.00;;;;;;7355030;19;20010;-72
2022/07/12 09:29:56;;;;;;;0.40;0.40;;;22.60;1.00;;;;;;7363068;19;20098;-72
2022/07/12 09:37:53;;;;;;;0.68;0.40;;;23.10;1.00;;;;;;7353691;19;20082;-73
2022/07/12 09:40:24;;;;;;;1.33;0.40;;;23.10;1.00;;;;;;7365183;19;20006;-72
2022/07/12 09:42:57;;;;;;;0.70;0.50;;;23.20;1.00;;;;;;7364324;19;20007;-70
2022/07/12 09:45:27;;;;;;;0.65;0.35;;;23.20;1.00;;;;;;7363981;19;20017;-72
2022/07/12 09:47:57;;;;;;;0.52;0.22;;;23.40;1.00;;;;;;7356699;19;20015;-74
2022/07/12 09:50:27;;;;;;;0.50;0.40;;;23.60;1.00;;;;;;7385200;19;20022;-74
2022/07/12 09:53:01;;;;;;;0.77;0.30;;;24.00;1.00;;;;;;7364056;19;20014;-73
2022/07/12 09:55:32;;;;;;;0.60;0.47;;;23.90;1.00;;;;;;7362861;19;20126;-73
2022/07/12 09:58:06;;;;;;;0.73;0.40;;;23.30;1.00;;;;;;7356630;19;20474;-73
2022/07/12 10:00:37;;;;;;;0.68;0.45;;;23.40;1.00;;;;;;7364707;19;20675;-72
2022/07/12 10:03:09;;;;;;;1.15;0.50;;;23.60;1.00;;;;;;7363495;19;20486;-72
2022/07/12 10:05:43;;;;;;;0.50;0.40;;;23.50;1.00;;;;;;7384750;19;20018;-73
2022/07/12 10:08:13;;;;;;;3.92;0.47;;;23.90;1.00;;;;;;7356757;19;20014;-74
2022/07/12 10:10:43;;;;;;;1.23;0.70;;;24.10;1.00;;;;;;7363359;19;20019;-73
2022/07/12 10:13:16;;;;;;;0.63;0.43;;;24.30;1.00;;;;;;7367060;19;20098;-75
2022/07/12 10:15:48;;;;;;;0.60;0.38;;;24.40;1.00;;;;;;7365508;19;20018;-75
2022/07/12 10:18:20;;;;;;;0.20;0.20;;;24.20;1.00;;;;;;7366790;19;20021;-73
2022/07/12 10:20:52;;;;;;;0.68;0.30;;;24.00;1.00;;;;;;7361136;19;20015;-74
2022/07/12 10:23:34;;;;;;;0.50;0.40;;;23.90;1.00;;;;;;7384618;19;20024;-73
2022/07/12 10:26:19;;;;;;;2.25;0.40;;;24.20;1.00;;;;;;7365270;19;20015;-73
2022/07/12 10:29:21;;;;;;;1.23;0.40;;;23.90;1.00;;;;;;7365996;19;20006;-74
2022/07/12 10:31:51;;;;;;;1.02;0.30;;;24.30;1.00;;;;;;7361591;19;20045;-74
2022/07/12 10:34:27;;;;;;;0.65;0.40;;;24.00;1.00;;;;;;7364111;19;20011;-73
2022/07/12 10:37:11;;;;;;;0.38;0.30;;;24.10;1.00;;;;;;7364336;19;20010;-73
2022/07/12 10:40:14;;;;;;;2.50;0.38;;;24.40;1.00;;;;;;7362506;19;20491;-73
2022/07/12 10:44:04;;;;;;;0.45;0.30;;;25.20;1.00;;;;;;7361980;19;20011;-74
2022/07/12 10:46:27;;;;;;;2.65;0.60;;;24.60;1.00;;;;;;7361714;19;20362;-74
2022/07/12 10:49:30;;;;;;;0.43;0.30;;;25.00;1.00;;;;;;7363025;19;20507;-74
2022/07/12 10:52:15;;;;;;;0.70;0.50;;;25.00;1.00;;;;;;7365222;19;20039;-72
2022/07/12 10:54:51;;;;;;;0.95;0.38;;;25.10;1.00;;;;;;7361640;19;20010;-75
2022/07/12 10:57:42;;;;;;;0.43;0.40;;;24.20;1.00;;;;;;7360622;19;20014;-72
2022/07/12 11:00:14;;;;;;;0.90;0.50;;;24.40;1.00;;;;;;7362158;19;20014;-74
2022/07/12 11:02:46;;;;;;;1.70;1.20;;;24.60;1.00;;;;;;7366001;19;20021;-73
2022/07/12 11:05:16;;;;;;;0.85;0.50;;;24.90;1.00;;;;;;7381822;19;20554;-74
2022/07/12 11:07:46;;;;;;;1.45;0.47;;;24.70;1.00;;;;;;7360781;19;20018;-73
2022/07/12 11:10:16;;;;;;;1.08;0.55;;;24.70;1.00;;;;;;7361551;19;20052;-73
2022/07/12 11:12:47;;;;;;;1.02;0.50;;;25.30;1.00;;;;;;7361491;19;20018;-74
2022/07/12 11:15:16;;;;;;;0.50;0.40;;;25.30;1.00;;;;;;7360950;19;20078;-74
2022/07/12 11:17:49;;;;;;;0.70;0.40;;;25.40;1.00;;;;;;7360166;19;20471;-74
2022/07/12 11:20:19;;;;;;;0.97;0.40;;;25.50;1.00;;;;;;7382371;19;20082;-73
2022/07/12 11:22:51;;;;;;;0.50;0.40;;;25.10;1.00;;;;;;7362093;19;20094;-75
2022/07/12 11:25:23;;;;;;;1.63;0.60;;;24.80;1.00;;;;;;7363819;19;20027;-71
2022/07/12 11:27:53;;;;;;;0.82;0.43;;;25.30;1.00;;;;;;7362794;19;20113;-73
2022/07/12 11:30:25;;;;;;;1.35;0.50;;;25.70;1.00;;;;;;7361202;19;20473;-74
2022/07/12 11:32:58;;;;;;;0.35;0.30;;;25.60;1.00;;;;;;7361907;19;20110;-73
2022/07/12 11:35:29;;;;;;;0.35;0.30;;;25.50;1.00;;;;;;7381637;19;20492;-74
2022/07/12 11:38:00;;;;;;;0.63;0.32;;;25.10;1.00;;;;;;7363251;19;20086;-73
2022/07/12 11:40:31;;;;;;;1.30;0.60;;;24.80;1.00;;;;;;7360565;19;20036;-74
2022/07/12 11:43:03;;;;;;;0.60;0.30;;;24.70;1.00;;;;;;7360902;19;20017;-73
2022/07/12 11:45:35;;;;;;;0.55;0.45;;;24.70;1.00;;;;;;7360321;19;20013;-74
2022/07/12 11:48:08;;;;;;;0.32;0.30;;;25.20;1.00;;;;;;7363538;19;20011;-74
2022/07/12 11:50:38;;;;;;;0.40;0.30;;;25.60;1.00;;;;;;7381782;19;20102;-73
2022/07/12 11:53:08;;;;;;;4.85;2.15;;;25.60;1.00;;;;;;7360552;19;20021;-75
2022/07/12 11:55:44;;;;;;;0.55;0.40;;;26.00;1.00;;;;;;7361807;19;20027;-72
2022/07/12 11:58:15;;;;;;;0.60;0.40;;;25.40;1.00;;;;;;7361120;19;20019;-73
2022/07/12 12:00:45;;;;;;;0.55;0.40;;;25.50;1.00;;;;;;7361502;19;20022;-74
2022/07/12 12:03:19;;;;;;;1.25;0.30;;;25.50;1.00;;;;;;7360646;19;20488;-73
2022/07/12 12:05:50;;;;;;;0.28;0.28;;;25.30;1.00;;;;;;7358075;19;20015;-73
2022/07/12 12:08:24;;;;;;;0.90;0.40;;;25.50;1.00;;;;;;7385826;19;20482;-73
2022/07/12 12:10:59;;;;;;;1.13;0.52;;;25.40;1.00;;;;;;7366577;19;20471;-74
2022/07/12 12:13:31;;;;;;;0.50;0.40;;;25.40;1.00;;;;;;7366558;19;20019;-73
2022/07/12 12:16:06;;;;;;;0.93;0.30;;;25.40;1.00;;;;;;7365962;19;20002;-75
2022/07/12 12:18:39;;;;;;;1.30;0.50;;;25.70;1.00;;;;;;7366987;19;20013;-72
2022/07/12 12:21:10;;;;;;;;;;;25.70;1.00;;;;;;7370825;19;20019;-73
2022/07/12 12:23:42;;;;;;;0.68;0.50;;;25.70;1.00;;;;;;7392072;19;19942;-74
2022/07/12 12:26:17;;;;;;;1.83;0.40;;;25.70;1.00;;;;;;7367609;19;20007;-72
2022/07/12 12:28:48;;;;;;;1.13;0.40;;;25.70;1.00;;;;;;7365844;19;20018;-73
2022/07/12 12:31:19;;;;;;;1.98;0.52;;;25.90;1.00;;;;;;7365530;19;20035;-73
2022/07/12 12:33:56;;;;;;;0.50;0.40;;;26.00;1.00;;;;;;7367256;19;20062;-73
2022/07/12 12:36:27;;;;;;;0.43;0.40;;;25.50;1.00;;;;;;7366489;19;20014;-74
2022/07/12 12:38:58;;;;;;;0.63;0.45;;;25.70;1.00;;;;;;7366661;19;20043;-73
2022/07/12 12:41:29;;;;;;;0.32;0.32;;;25.90;1.00;;;;;;7387496;19;20018;-73
2022/07/12 12:44:01;;;;;;;2.15;0.40;;;25.70;1.00;;;;;;7369815;19;20015;-73
2022/07/12 12:46:55;;;;;;;0.90;0.50;;;26.00;1.00;;;;;;7364156;19;20014;-73
2022/07/12 12:49:49;;;;;;;0.73;0.40;;;26.20;1.00;;;;;;7366436;19;20017;-73
2022/07/12 12:52:27;;;;;;;1.70;0.40;;;25.70;1.00;;;;;;7366124;19;20014;-74
2022/07/12 12:54:58;;;;;;;0.60;0.43;;;25.80;1.00;;;;;;7366593;19;20707;-74
2022/07/12 12:57:28;;;;;;;1.20;0.40;;;26.10;1.00;;;;;;7363580;19;20015;-73
2022/07/12 12:59:58;;;;;;;1.20;0.30;;;26.10;1.00;;;;;;7365673;19;20085;-74
2022/07/12 13:02:28;;;;;;;1.00;0.50;;;26.30;1.00;;;;;;7387922;19;20022;-74
2022/07/12 13:05:01;;;;;;;2.55;0.20;;;26.60;1.00;;;;;;7364766;19;20025;-74
2022/07/12 13:07:31;;;;;;;2.03;0.45;;;26.70;1.00;;;;;;7364022;19;20021;-75
2022/07/12 13:10:01;;;;;;;1.42;0.40;;;26.70;1.00;;;;;;7365961;19;20445;-73
2022/07/12 13:12:31;;;;;;;0.68;0.40;;;26.30;1.00;;;;;;7364334;19;20010;-74
2022/07/12 13:15:01;;;;;;;2.17;0.40;;;26.30;1.00;;;;;;7365959;19;20421;-75
2022/07/12 13:17:31;;;;;;;2.92;0.47;;;25.80;1.00;;;;;;7386149;19;20016;-75
2022/07/12 13:20:03;;;;;;;1.85;0.60;;;26.30;1.00;;;;;;7365624;19;20007;-74
2022/07/12 13:22:33;;;;;;;2.00;0.60;;;26.70;1.00;;;;;;7365031;19;20014;-74
2022/07/12 13:25:04;;;;;;;1.02;0.40;;;26.90;1.00;;;;;;7368321;19;20569;-74
2022/07/12 13:27:34;;;;;;;1.70;0.40;;;26.30;1.00;;;;;;7365103;19;20133;-75